createdAt,value
2018-01-22T05:00:45.931Z,0
2018-01-22T05:01:11.415Z,0
2018-01-22T05:01:36.893Z,0
2018-01-22T05:02:02.380Z,0
2018-01-22T05:02:27.870Z,0
2018-01-22T05:02:53.357Z,0
2018-01-22T05:03:18.824Z,0
2018-01-22T05:03:44.332Z,0
2018-01-22T05:04:09.842Z,0
2018-01-22T05:04:35.320Z,0
2018-01-22T05:05:00.818Z,0
2018-01-22T05:05:26.344Z,0
2018-01-22T05:05:51.828Z,0
2018-01-22T05:07:00.536Z,0
2018-01-22T05:07:26.018Z,0
2018-01-22T05:07:51.537Z,0
2018-01-22T05:08:17.012Z,0
2018-01-22T05:08:42.515Z,0
2018-01-22T05:09:08.006Z,0
2018-01-22T05:09:33.468Z,0
2018-01-22T05:09:58.950Z,0
2018-01-22T05:10:24.423Z,0
2018-01-22T05:10:49.907Z,0
2018-01-22T05:11:15.404Z,0
2018-01-22T05:11:40.888Z,0
2018-01-22T05:12:06.390Z,0
2018-01-22T05:13:16.050Z,0
2018-01-22T05:13:41.546Z,0
2018-01-22T05:14:07.061Z,0
2018-01-22T05:14:32.556Z,0
2018-01-22T05:14:58.044Z,0
2018-01-22T05:16:22.034Z,0
2018-01-22T05:16:47.517Z,0
2018-01-22T05:17:13.007Z,0
2018-01-22T05:17:38.477Z,0
2018-01-22T05:18:47.133Z,0
2018-01-22T05:19:12.621Z,0
2018-01-22T05:19:38.100Z,0
2018-01-22T05:20:03.656Z,0
2018-01-22T05:20:29.149Z,0
2018-01-22T05:21:48.071Z,0
2018-01-22T05:22:13.669Z,0
2018-01-22T05:22:39.156Z,0
2018-01-22T05:23:04.834Z,0
2018-01-22T05:23:30.584Z,0
2018-01-22T05:23:56.080Z,0
2018-01-22T05:24:21.545Z,0
2018-01-22T05:24:47.131Z,0
2018-01-22T05:25:12.598Z,0
2018-01-22T05:25:38.202Z,0
2018-01-22T05:26:03.700Z,0
2018-01-22T05:26:29.275Z,0
2018-01-22T05:26:54.768Z,0
2018-01-22T05:27:20.280Z,0
2018-01-22T05:27:45.709Z,0
2018-01-22T05:28:11.172Z,0
2018-01-22T05:28:36.644Z,0
2018-01-22T05:29:02.116Z,0
2018-01-22T05:29:27.566Z,0
2018-01-22T05:29:53.043Z,0
2018-01-22T05:30:18.490Z,0
2018-01-22T05:31:22.102Z,0
2018-01-22T05:31:47.604Z,0
2018-01-22T05:32:13.099Z,0
2018-01-22T05:32:38.596Z,0
2018-01-22T05:33:04.064Z,0
2018-01-22T05:33:29.535Z,0
2018-01-22T05:33:55.007Z,0
2018-01-22T05:34:20.501Z,0
2018-01-22T05:34:45.996Z,0
2018-01-22T05:35:11.497Z,0
2018-01-22T05:35:36.953Z,0
2018-01-22T05:36:50.728Z,0
2018-01-22T05:37:16.220Z,0
2018-01-22T05:37:41.677Z,0
2018-01-22T05:38:07.151Z,0
2018-01-22T05:38:32.614Z,0
2018-01-22T05:38:58.096Z,0
2018-01-22T05:39:23.565Z,0
2018-01-22T05:40:47.546Z,0
2018-01-22T05:41:13.029Z,0
2018-01-22T05:41:38.516Z,0
2018-01-22T05:42:04.016Z,0
2018-01-22T05:42:29.506Z,0
2018-01-22T05:42:54.958Z,0
2018-01-22T05:43:20.447Z,0
2018-01-22T05:43:45.953Z,0
2018-01-22T05:44:11.401Z,0
2018-01-22T05:44:36.939Z,0
2018-01-22T05:45:02.492Z,0
2018-01-22T05:45:27.985Z,0
2018-01-22T05:45:53.475Z,0
2018-01-22T05:46:19.024Z,0
2018-01-22T05:46:44.470Z,0
2018-01-22T05:47:09.972Z,0
2018-01-22T05:47:35.464Z,0
2018-01-22T05:48:00.969Z,0
2018-01-22T05:48:26.463Z,0
2018-01-22T05:49:45.373Z,0
2018-01-22T05:50:10.842Z,0
2018-01-22T05:50:36.410Z,0
2018-01-22T05:51:15.368Z,0
2018-01-22T05:51:44.381Z,0
2018-01-22T05:52:14.376Z,0
2018-01-22T05:52:42.383Z,0
2018-01-22T05:53:13.375Z,0
2018-01-22T05:53:42.369Z,0
2018-01-22T05:54:11.377Z,0
2018-01-22T05:54:40.376Z,0
2018-01-22T05:55:08.960Z,0
2018-01-22T05:55:36.867Z,0
2018-01-22T05:56:03.209Z,0
2018-01-22T05:56:28.676Z,0
2018-01-22T05:56:54.163Z,0
2018-01-22T05:57:19.658Z,0
2018-01-22T05:57:45.132Z,0
2018-01-22T05:58:10.625Z,0
2018-01-22T05:58:36.149Z,0
2018-01-22T05:59:01.627Z,0
2018-01-22T05:59:27.104Z,0
2018-01-22T05:59:52.602Z,0
2018-01-22T06:00:18.086Z,0
2018-01-22T06:00:43.591Z,0
2018-01-22T06:01:09.092Z,0
2018-01-22T06:01:34.582Z,0
2018-01-22T06:02:00.054Z,0
2018-01-22T06:02:25.534Z,0
2018-01-22T06:02:51.012Z,0
2018-01-22T06:03:16.479Z,0
2018-01-22T06:03:41.971Z,0
2018-01-22T06:05:00.870Z,0
2018-01-22T06:05:26.366Z,0
2018-01-22T06:05:51.855Z,0
2018-01-22T06:06:17.336Z,0
2018-01-22T06:06:42.879Z,0
2018-01-22T06:07:08.492Z,0
2018-01-22T06:07:36.814Z,0
2018-01-22T06:08:02.290Z,0
2018-01-22T06:08:27.779Z,0
2018-01-22T06:08:53.386Z,0
2018-01-22T06:09:18.892Z,0
2018-01-22T06:09:44.365Z,0
2018-01-22T06:10:09.822Z,0
2018-01-22T06:10:35.306Z,0
2018-01-22T06:11:00.786Z,0
2018-01-22T06:11:26.291Z,0
2018-01-22T06:12:30.463Z,0
2018-01-22T06:12:56.025Z,0
2018-01-22T06:13:21.546Z,0
2018-01-22T06:13:46.993Z,0
2018-01-22T06:14:12.582Z,0
2018-01-22T06:14:38.085Z,0
2018-01-22T06:15:03.632Z,0
2018-01-22T06:15:29.208Z,0
2018-01-22T06:15:54.591Z,0
2018-01-22T06:16:20.065Z,0
2018-01-22T06:17:38.968Z,0
2018-01-22T06:18:04.435Z,0
2018-01-22T06:18:29.905Z,0
2018-01-22T06:18:55.404Z,0
2018-01-22T06:19:20.938Z,0
2018-01-22T06:19:46.411Z,0
2018-01-22T06:20:11.958Z,0
2018-01-22T06:20:37.503Z,0
2018-01-22T06:21:03.171Z,0
2018-01-22T06:22:16.839Z,0
2018-01-22T06:22:42.345Z,0
2018-01-22T06:23:07.805Z,0
2018-01-22T06:23:33.283Z,0
2018-01-22T06:23:58.791Z,0
2018-01-22T06:24:24.265Z,0
2018-01-22T06:24:49.766Z,0
2018-01-22T06:26:08.746Z,0
2018-01-22T06:26:34.236Z,0
2018-01-22T06:26:59.726Z,0
2018-01-22T06:28:23.757Z,0
2018-01-22T06:28:49.247Z,0
2018-01-22T06:29:14.738Z,0
2018-01-22T06:29:40.223Z,0
2018-01-22T06:30:05.718Z,0
2018-01-22T06:30:31.186Z,0
2018-01-22T06:30:56.686Z,0
2018-01-22T06:31:22.183Z,0
2018-01-22T06:31:47.653Z,0
2018-01-22T06:33:06.580Z,0
2018-01-22T06:33:32.078Z,0
2018-01-22T06:33:57.562Z,0
2018-01-22T06:34:23.055Z,0
2018-01-22T06:34:48.750Z,0
2018-01-22T06:35:14.274Z,0
2018-01-22T06:35:39.826Z,0
2018-01-22T06:36:05.377Z,0
2018-01-22T06:36:30.950Z,0
2018-01-22T06:36:56.429Z,0
2018-01-22T06:37:21.950Z,0
2018-01-22T06:37:47.428Z,0
2018-01-22T06:38:12.985Z,0
2018-01-22T06:38:38.500Z,0
2018-01-22T06:39:03.982Z,0
2018-01-22T06:39:29.458Z,0
2018-01-22T06:39:54.953Z,0
2018-01-22T06:40:20.424Z,0
2018-01-22T06:41:39.686Z,0
2018-01-22T06:42:05.275Z,0
2018-01-22T06:42:30.890Z,0
2018-01-22T06:42:56.511Z,0
2018-01-22T06:43:21.990Z,0
2018-01-22T06:43:47.446Z,0
2018-01-22T06:44:12.941Z,0
2018-01-22T06:44:38.443Z,0
2018-01-22T06:45:03.901Z,0
2018-01-22T06:45:29.400Z,0
2018-01-22T06:46:38.087Z,0
2018-01-22T06:47:03.589Z,0
2018-01-22T06:48:27.661Z,0
2018-01-22T06:49:46.673Z,0
2018-01-22T06:50:12.158Z,0
2018-01-22T06:50:37.687Z,0
2018-01-22T06:51:46.929Z,0
2018-01-22T06:52:12.424Z,0
2018-01-22T06:52:37.910Z,0
2018-01-22T06:53:03.380Z,0
2018-01-22T06:53:28.866Z,0
2018-01-22T06:54:43.402Z,0
2018-01-22T06:55:08.872Z,0
2018-01-22T06:55:34.370Z,4
2018-01-22T06:55:59.847Z,4
2018-01-22T06:56:25.334Z,4
2018-01-22T06:56:50.829Z,4
2018-01-22T06:57:54.423Z,4
2018-01-22T06:58:19.919Z,4
2018-01-22T06:58:45.410Z,4
2018-01-22T06:59:10.987Z,0
2018-01-22T06:59:36.519Z,4
2018-01-22T07:00:01.989Z,4
2018-01-22T07:00:27.476Z,4
2018-01-22T07:00:53.009Z,4
2018-01-22T07:01:18.508Z,4
2018-01-22T07:02:23.134Z,4
2018-01-22T07:02:48.765Z,4
2018-01-22T07:03:14.205Z,4
2018-01-22T07:03:39.681Z,8
2018-01-22T07:05:03.689Z,8
2018-01-22T07:05:29.170Z,8
2018-01-22T07:05:54.736Z,8
2018-01-22T07:06:20.204Z,8
2018-01-22T07:06:45.677Z,8
2018-01-22T07:07:49.483Z,8
2018-01-22T07:08:15.037Z,12
2018-01-22T07:08:40.521Z,8
2018-01-22T07:09:06.003Z,12
2018-01-22T07:11:13.184Z,12
2018-01-22T07:11:38.645Z,12
2018-01-22T07:12:04.176Z,12
2018-01-22T07:12:29.706Z,12
2018-01-22T07:12:55.210Z,16
2018-01-22T07:14:19.295Z,20
2018-01-22T07:14:44.821Z,20
2018-01-22T07:15:10.327Z,20
2018-01-22T07:16:24.041Z,24
2018-01-22T07:16:49.516Z,24
2018-01-22T07:17:15.036Z,28
2018-01-22T07:17:40.826Z,28
2018-01-22T07:18:06.318Z,32
2018-01-22T07:18:31.864Z,32
2018-01-22T07:18:57.340Z,28
2018-01-22T07:19:22.804Z,32
2018-01-22T07:19:48.469Z,36
2018-01-22T07:20:13.954Z,36
2018-01-22T07:20:39.429Z,32
2018-01-22T07:21:05.014Z,40
2018-01-22T07:21:30.484Z,40
2018-01-22T07:21:55.958Z,36
2018-01-22T07:22:21.415Z,40
2018-01-22T07:22:46.918Z,44
2018-01-22T07:23:12.424Z,44
2018-01-22T07:23:37.924Z,44
2018-01-22T07:24:03.411Z,44
2018-01-22T07:24:28.883Z,52
2018-01-22T07:24:54.402Z,52
2018-01-22T07:25:19.885Z,52
2018-01-22T07:25:45.378Z,52
2018-01-22T07:26:48.975Z,56
2018-01-22T07:27:14.439Z,60
2018-01-22T07:27:39.939Z,56
2018-01-22T07:28:05.422Z,60
2018-01-22T07:28:30.908Z,60
2018-01-22T07:29:44.667Z,72
2018-01-22T07:30:10.140Z,80
2018-01-22T07:30:35.629Z,84
2018-01-22T07:31:01.106Z,80
2018-01-22T07:31:26.623Z,92
2018-01-22T07:31:52.147Z,92
2018-01-22T07:33:05.888Z,120
2018-01-22T07:33:31.401Z,120
2018-01-22T07:33:56.906Z,124
2018-01-22T07:34:22.413Z,124
2018-01-22T07:35:31.100Z,148
2018-01-22T07:35:56.582Z,140
2018-01-22T07:36:22.092Z,144
2018-01-22T07:37:46.071Z,144
2018-01-22T07:38:11.589Z,160
2018-01-22T07:38:37.100Z,156
2018-01-22T07:39:02.587Z,152
2018-01-22T07:39:28.059Z,152
2018-01-22T07:39:53.562Z,164
2018-01-22T07:40:19.064Z,160
2018-01-22T07:40:44.669Z,164
2018-01-22T07:41:10.158Z,172
2018-01-22T07:41:35.677Z,176
2018-01-22T07:42:01.148Z,192
2018-01-22T07:42:26.690Z,188
2018-01-22T07:42:52.153Z,200
2018-01-22T07:43:17.653Z,200
2018-01-22T07:43:43.125Z,196
2018-01-22T07:44:08.657Z,196
2018-01-22T07:44:34.120Z,208
2018-01-22T07:44:59.574Z,204
2018-01-22T07:45:25.054Z,212
2018-01-22T07:45:50.537Z,220
2018-01-22T07:46:16.071Z,224
2018-01-22T07:46:41.640Z,244
2018-01-22T07:47:07.101Z,252
2018-01-22T07:47:32.602Z,240
2018-01-22T07:47:58.114Z,236
2018-01-22T07:48:23.645Z,248
2018-01-22T07:48:49.156Z,248
2018-01-22T07:49:14.855Z,252
2018-01-22T07:49:40.283Z,256
2018-01-22T07:50:05.814Z,264
2018-01-22T07:50:31.328Z,256
2018-01-22T07:50:56.817Z,268
2018-01-22T07:51:22.332Z,280
2018-01-22T07:51:47.840Z,276
2018-01-22T07:52:13.318Z,276
2018-01-22T07:52:38.789Z,276
2018-01-22T07:53:04.290Z,276
2018-01-22T07:53:29.807Z,268
2018-01-22T07:53:55.298Z,264
2018-01-22T07:54:20.798Z,252
2018-01-22T07:54:46.268Z,260
2018-01-22T07:55:11.712Z,268
2018-01-22T07:55:37.192Z,268
2018-01-22T07:56:02.705Z,268
2018-01-22T07:56:28.213Z,260
2018-01-22T07:56:53.714Z,260
2018-01-22T07:57:19.258Z,272
2018-01-22T07:57:44.787Z,292
2018-01-22T07:58:10.247Z,300
2018-01-22T07:58:35.760Z,296
2018-01-22T07:59:01.263Z,312
2018-01-22T07:59:26.800Z,336
2018-01-22T07:59:52.290Z,336
2018-01-22T08:00:17.853Z,340
2018-01-22T08:00:43.309Z,328
2018-01-22T08:01:08.847Z,320
2018-01-22T08:01:34.322Z,316
2018-01-22T08:01:59.894Z,308
2018-01-22T08:02:25.393Z,300
2018-01-22T08:02:50.872Z,304
2018-01-22T08:03:16.341Z,320
2018-01-22T08:03:41.856Z,316
2018-01-22T08:04:07.314Z,312
2018-01-22T08:04:32.863Z,300
2018-01-22T08:04:58.418Z,300
2018-01-22T08:05:23.858Z,296
2018-01-22T08:05:49.363Z,300
2018-01-22T08:06:14.875Z,300
2018-01-22T08:06:40.328Z,300
2018-01-22T08:07:43.947Z,312
2018-01-22T08:08:09.439Z,312
2018-01-22T08:08:34.982Z,312
2018-01-22T08:09:00.454Z,320
2018-01-22T08:09:25.953Z,324
2018-01-22T08:09:51.430Z,336
2018-01-22T08:10:16.900Z,364
2018-01-22T08:10:42.370Z,360
2018-01-22T08:11:07.872Z,392
2018-01-22T08:11:33.319Z,412
2018-01-22T08:11:58.795Z,392
2018-01-22T08:12:24.272Z,380
2018-01-22T08:12:49.773Z,384
2018-01-22T08:13:15.326Z,416
2018-01-22T08:13:40.803Z,432
2018-01-22T08:14:06.294Z,436
2018-01-22T08:14:31.746Z,444
2018-01-22T08:14:57.246Z,456
2018-01-22T08:15:22.734Z,424
2018-01-22T08:15:48.246Z,380
2018-01-22T08:16:13.723Z,400
2018-01-22T08:17:22.433Z,388
2018-01-22T08:17:47.915Z,388
2018-01-22T08:18:13.378Z,360
2018-01-22T08:18:38.868Z,344
2018-01-22T08:19:04.389Z,352
2018-01-22T08:19:29.874Z,352
2018-01-22T08:19:55.404Z,348
2018-01-22T08:20:20.875Z,340
2018-01-22T08:21:34.690Z,336
2018-01-22T08:22:00.176Z,320
2018-01-22T08:22:25.679Z,312
2018-01-22T08:22:51.148Z,312
2018-01-22T08:23:16.682Z,328
2018-01-22T08:23:42.166Z,344
2018-01-22T08:24:07.651Z,332
2018-01-22T08:24:33.187Z,332
2018-01-22T08:24:58.674Z,336
2018-01-22T08:25:24.162Z,332
2018-01-22T08:25:49.621Z,344
2018-01-22T08:27:03.421Z,376
2018-01-22T08:27:28.921Z,380
2018-01-22T08:27:54.390Z,384
2018-01-22T08:28:19.914Z,388
2018-01-22T08:28:45.422Z,408
2018-01-22T08:29:10.904Z,436
2018-01-22T08:29:36.410Z,464
2018-01-22T08:30:02.097Z,476
2018-01-22T08:31:15.766Z,460
2018-01-22T08:31:41.249Z,460
2018-01-22T08:32:06.744Z,456
2018-01-22T08:32:32.259Z,472
2018-01-22T08:32:57.748Z,488
2018-01-22T08:33:23.253Z,496
2018-01-22T08:33:48.729Z,496
2018-01-22T08:34:14.237Z,496
2018-01-22T08:34:39.722Z,496
2018-01-22T08:35:05.223Z,500
2018-01-22T08:35:30.743Z,496
2018-01-22T08:35:56.203Z,504
2018-01-22T08:36:21.700Z,504
2018-01-22T08:36:47.206Z,508
2018-01-22T08:37:12.789Z,516
2018-01-22T08:37:38.267Z,508
2018-01-22T08:38:03.738Z,488
2018-01-22T08:39:12.468Z,448
2018-01-22T08:39:38.026Z,440
2018-01-22T08:40:03.513Z,456
2018-01-22T08:40:29.082Z,464
2018-01-22T08:40:54.534Z,492
2018-01-22T08:41:20.040Z,500
2018-01-22T08:41:45.544Z,508
2018-01-22T08:43:09.596Z,532
2018-01-22T08:43:35.086Z,524
2018-01-22T08:44:00.595Z,524
2018-01-22T08:44:26.071Z,524
2018-01-22T08:44:51.577Z,524
2018-01-22T08:45:17.133Z,512
2018-01-22T08:45:42.625Z,512
2018-01-22T08:46:08.166Z,504
2018-01-22T08:46:33.662Z,516
2018-01-22T08:46:59.206Z,536
2018-01-22T08:47:24.694Z,560
2018-01-22T08:47:50.171Z,580
2018-01-22T08:48:15.730Z,588
2018-01-22T08:49:34.669Z,572
2018-01-22T08:50:00.142Z,576
2018-01-22T08:50:25.592Z,588
2018-01-22T08:50:51.081Z,568
2018-01-22T08:51:16.594Z,556
2018-01-22T08:51:42.156Z,556
2018-01-22T08:52:07.671Z,544
2018-01-22T08:52:33.188Z,528
2018-01-22T08:52:58.698Z,504
2018-01-22T08:53:24.206Z,492
2018-01-22T08:53:49.668Z,504
2018-01-22T08:54:15.144Z,512
2018-01-22T08:54:40.659Z,508
2018-01-22T08:55:06.155Z,524
2018-01-22T08:56:25.470Z,584
2018-01-22T08:56:50.954Z,592
2018-01-22T08:57:16.471Z,616
2018-01-22T08:57:41.950Z,636
2018-01-22T08:58:07.495Z,644
2018-01-22T08:58:33.057Z,672
2018-01-22T08:58:58.556Z,708
2018-01-22T08:59:24.145Z,712
2018-01-22T08:59:49.663Z,728
2018-01-22T09:00:15.251Z,756
2018-01-22T09:00:40.834Z,764
2018-01-22T09:01:06.329Z,780
2018-01-22T09:01:31.921Z,804
2018-01-22T09:02:50.885Z,828
2018-01-22T09:03:16.395Z,832
2018-01-22T09:03:41.875Z,848
2018-01-22T09:04:07.363Z,872
2018-01-22T09:04:32.896Z,892
2018-01-22T09:04:58.348Z,908
2018-01-22T09:05:23.856Z,900
2018-01-22T09:05:49.391Z,900
2018-01-22T09:06:14.884Z,924
2018-01-22T09:06:40.358Z,908
2018-01-22T09:07:05.869Z,888
2018-01-22T09:07:31.330Z,880
2018-01-22T09:07:56.848Z,904
2018-01-22T09:08:22.344Z,896
2018-01-22T09:08:47.842Z,860
2018-01-22T09:09:13.361Z,848
2018-01-22T09:10:32.592Z,836
2018-01-22T09:10:58.010Z,844
2018-01-22T09:11:23.504Z,844
2018-01-22T09:11:49.218Z,856
2018-01-22T09:12:14.695Z,860
2018-01-22T09:12:40.215Z,864
2018-01-22T09:13:05.674Z,864
2018-01-22T09:13:31.203Z,868
2018-01-22T09:13:56.709Z,900
2018-01-22T09:14:22.194Z,876
2018-01-22T09:14:47.694Z,880
2018-01-22T09:15:13.151Z,904
2018-01-22T09:16:21.827Z,948
2018-01-22T09:16:47.348Z,960
2018-01-22T09:17:12.820Z,940
2018-01-22T09:18:16.416Z,984
2018-01-22T09:18:41.970Z,1012
2018-01-22T09:19:07.496Z,1000
2018-01-22T09:19:33.181Z,1016
2018-01-22T09:19:58.727Z,1092
2018-01-22T09:20:24.193Z,1104
2018-01-22T09:20:49.689Z,1088
2018-01-22T09:21:15.171Z,1032
2018-01-22T09:21:40.660Z,996
2018-01-22T09:22:06.166Z,952
2018-01-22T09:22:31.724Z,976
2018-01-22T09:22:57.223Z,988
2018-01-22T09:23:22.707Z,1000
2018-01-22T09:24:26.388Z,1172
2018-01-22T09:24:51.889Z,1248
2018-01-22T09:25:17.397Z,1300
2018-01-22T09:25:43.080Z,1384
2018-01-22T09:26:08.521Z,1536
2018-01-22T09:26:33.995Z,1652
2018-01-22T09:26:59.490Z,1728
2018-01-22T09:27:25.019Z,1904
2018-01-22T09:27:50.515Z,1864
2018-01-22T09:28:15.991Z,1908
2018-01-22T09:28:41.466Z,1992
2018-01-22T09:29:06.908Z,2148
2018-01-22T09:29:32.381Z,2372
2018-01-22T09:29:57.884Z,2520
2018-01-22T09:30:23.370Z,2716
2018-01-22T09:30:48.812Z,2804
2018-01-22T09:31:52.441Z,2760
2018-01-22T09:32:17.931Z,2768
2018-01-22T09:32:43.407Z,2536
2018-01-22T09:33:08.884Z,2472
2018-01-22T09:34:27.843Z,2396
2018-01-22T09:34:53.338Z,2332
2018-01-22T09:35:18.825Z,2396
2018-01-22T09:35:44.311Z,2588
2018-01-22T09:36:09.748Z,2660
2018-01-22T09:36:35.225Z,2700
2018-01-22T09:37:00.744Z,2736
2018-01-22T09:37:26.205Z,2616
2018-01-22T09:37:51.705Z,2544
2018-01-22T09:38:17.162Z,2732
2018-01-22T09:38:42.681Z,2608
2018-01-22T09:39:08.212Z,2688
2018-01-22T09:39:33.709Z,2704
2018-01-22T09:39:59.235Z,2552
2018-01-22T09:40:24.718Z,2544
2018-01-22T09:40:50.209Z,2760
2018-01-22T09:41:15.686Z,3048
2018-01-22T09:41:41.236Z,2960
2018-01-22T09:42:06.686Z,2940
2018-01-22T09:42:32.180Z,3116
2018-01-22T09:42:57.667Z,3048
2018-01-22T09:43:23.173Z,2824
2018-01-22T09:43:48.644Z,2780
2018-01-22T09:44:14.145Z,3004
2018-01-22T09:45:22.828Z,2772
2018-01-22T09:45:48.308Z,3124
2018-01-22T09:46:13.758Z,3184
2018-01-22T09:46:39.240Z,3560
2018-01-22T09:47:04.740Z,3496
2018-01-22T09:47:30.235Z,3308
2018-01-22T09:47:55.685Z,3512
2018-01-22T09:48:21.179Z,3852
2018-01-22T09:48:46.635Z,3840
2018-01-22T09:49:12.109Z,4104
2018-01-22T09:49:37.580Z,4016
2018-01-22T09:50:03.072Z,3688
2018-01-22T09:50:28.518Z,3500
2018-01-22T09:50:54.007Z,3256
2018-01-22T09:51:19.478Z,2860
2018-01-22T09:51:44.959Z,2920
2018-01-22T09:52:10.440Z,3104
2018-01-22T09:52:35.906Z,3148
2018-01-22T09:53:01.348Z,3168
2018-01-22T09:53:26.820Z,2864
2018-01-22T09:53:52.400Z,2632
2018-01-22T09:54:17.905Z,2936
2018-01-22T09:54:43.402Z,3140
2018-01-22T09:55:08.881Z,3192
2018-01-22T09:55:34.356Z,3000
2018-01-22T09:55:59.850Z,2628
2018-01-22T09:56:25.263Z,2264
2018-01-22T09:56:50.743Z,2144
2018-01-22T09:57:16.285Z,2232
2018-01-22T09:57:41.753Z,2340
2018-01-22T09:58:07.265Z,2224
2018-01-22T09:58:32.776Z,2008
2018-01-22T09:59:51.681Z,1820
2018-01-22T10:00:17.162Z,1828
2018-01-22T10:00:42.641Z,1908
2018-01-22T10:01:08.115Z,2024
2018-01-22T10:01:33.583Z,2120
2018-01-22T10:01:59.069Z,2064
2018-01-22T10:02:24.534Z,2164
2018-01-22T10:02:50.006Z,2204
2018-01-22T10:03:15.536Z,2264
2018-01-22T10:03:41.026Z,2376
2018-01-22T10:04:06.478Z,2372
2018-01-22T10:04:31.977Z,2224
2018-01-22T10:04:57.437Z,1992
2018-01-22T10:06:01.059Z,2012
2018-01-22T10:06:26.565Z,2312
2018-01-22T10:06:52.047Z,2076
2018-01-22T10:07:17.523Z,1792
2018-01-22T10:07:43.009Z,1608
2018-01-22T10:08:08.447Z,1388
2018-01-22T10:08:33.913Z,1384
2018-01-22T10:08:59.423Z,1448
2018-01-22T10:09:24.891Z,1512
2018-01-22T10:09:50.377Z,1624
2018-01-22T10:10:15.860Z,1676
2018-01-22T10:10:41.411Z,1484
2018-01-22T10:11:06.959Z,1232
2018-01-22T10:11:32.385Z,1152
2018-01-22T10:11:57.840Z,1104
2018-01-22T10:12:23.300Z,1072
2018-01-22T10:13:47.295Z,1008
2018-01-22T10:14:12.820Z,1008
2018-01-22T10:14:38.296Z,996
2018-01-22T10:15:03.843Z,944
2018-01-22T10:15:29.289Z,944
2018-01-22T10:15:54.783Z,988
2018-01-22T10:16:20.285Z,996
2018-01-22T10:16:45.772Z,948
2018-01-22T10:17:11.273Z,1036
2018-01-22T10:17:36.748Z,1096
2018-01-22T10:18:02.227Z,1140
2018-01-22T10:19:21.218Z,1028
2018-01-22T10:19:46.609Z,960
2018-01-22T10:20:12.103Z,896
2018-01-22T10:20:37.562Z,900
2018-01-22T10:21:03.051Z,928
2018-01-22T10:21:28.503Z,932
2018-01-22T10:21:54.003Z,932
2018-01-22T10:22:19.481Z,948
2018-01-22T10:22:44.999Z,948
2018-01-22T10:23:10.473Z,996
2018-01-22T10:23:35.958Z,1044
2018-01-22T10:24:01.456Z,1056
2018-01-22T10:24:26.891Z,1028
2018-01-22T10:24:52.377Z,1072
2018-01-22T10:25:17.848Z,1124
2018-01-22T10:25:43.320Z,1172
2018-01-22T10:26:08.830Z,1228
2018-01-22T10:26:34.324Z,1300
2018-01-22T10:26:59.800Z,1324
2018-01-22T10:27:25.331Z,1444
2018-01-22T10:27:50.786Z,1464
2018-01-22T10:28:16.260Z,1516
2018-01-22T10:29:40.290Z,1464
2018-01-22T10:30:05.735Z,1260
2018-01-22T10:30:31.238Z,1256
2018-01-22T10:30:56.712Z,1476
2018-01-22T10:31:22.183Z,1564
2018-01-22T10:31:47.702Z,1612
2018-01-22T10:33:01.511Z,1328
2018-01-22T10:33:26.994Z,1112
2018-01-22T10:33:52.460Z,1040
2018-01-22T10:34:17.945Z,1096
2018-01-22T10:34:43.442Z,1152
2018-01-22T10:35:08.925Z,1276
2018-01-22T10:35:34.403Z,1320
2018-01-22T10:35:59.872Z,1232
2018-01-22T10:36:25.391Z,1024
2018-01-22T10:36:50.789Z,912
2018-01-22T10:37:16.307Z,908
2018-01-22T10:37:41.804Z,956
2018-01-22T10:38:07.271Z,1044
2018-01-22T10:38:32.887Z,1216
2018-01-22T10:38:58.417Z,1220
2018-01-22T10:39:23.931Z,1332
2018-01-22T10:39:49.456Z,1328
2018-01-22T10:40:14.957Z,1332
2018-01-22T10:40:40.462Z,1324
2018-01-22T10:41:05.947Z,1280
2018-01-22T10:41:31.473Z,1484
2018-01-22T10:41:56.963Z,1712
2018-01-22T10:42:22.438Z,1572
2018-01-22T10:42:47.933Z,1524
2018-01-22T10:43:13.374Z,1380
2018-01-22T10:43:38.891Z,1316
2018-01-22T10:44:04.366Z,1392
2018-01-22T10:45:08.541Z,1516
2018-01-22T10:45:34.020Z,1552
2018-01-22T10:45:59.490Z,1504
2018-01-22T10:46:24.961Z,1356
2018-01-22T10:46:50.442Z,1508
2018-01-22T10:47:15.919Z,1708
2018-01-22T10:47:41.407Z,1724
2018-01-22T10:48:06.890Z,1672
2018-01-22T10:48:32.345Z,1604
2018-01-22T10:48:58.333Z,1636
2018-01-22T10:49:23.784Z,1688
2018-01-22T10:50:32.512Z,1852
2018-01-22T10:50:58.023Z,1816
2018-01-22T10:51:23.465Z,2024
2018-01-22T10:51:48.996Z,2132
2018-01-22T10:53:02.853Z,1568
2018-01-22T10:53:28.317Z,1552
2018-01-22T10:53:53.792Z,1572
2018-01-22T10:54:19.281Z,1536
2018-01-22T10:54:44.806Z,1592
2018-01-22T10:55:10.285Z,1584
2018-01-22T10:55:35.750Z,1576
2018-01-22T10:56:54.731Z,1680
2018-01-22T10:57:20.213Z,1504
2018-01-22T10:57:45.694Z,1520
2018-01-22T10:58:11.176Z,1792
2018-01-22T10:58:36.680Z,1768
2018-01-22T10:59:02.135Z,1672
2018-01-22T10:59:27.634Z,1568
2018-01-22T10:59:53.161Z,1576
2018-01-22T11:00:18.660Z,1668
2018-01-22T11:01:42.996Z,1588
2018-01-22T11:02:08.484Z,1572
2018-01-22T11:02:33.946Z,1600
2018-01-22T11:02:59.476Z,1556
2018-01-22T11:03:24.931Z,1340
2018-01-22T11:03:50.456Z,1320
2018-01-22T11:04:15.967Z,1344
2018-01-22T11:04:41.462Z,1416
2018-01-22T11:05:07.037Z,1456
2018-01-22T11:05:32.432Z,1448
2018-01-22T11:05:57.973Z,1476
2018-01-22T11:06:23.417Z,1256
2018-01-22T11:06:48.871Z,1260
2018-01-22T11:07:14.335Z,1280
2018-01-22T11:07:39.854Z,1188
2018-01-22T11:08:05.296Z,1148
2018-01-22T11:08:30.785Z,1132
2018-01-22T11:08:56.261Z,1164
2018-01-22T11:09:21.763Z,1196
2018-01-22T11:09:47.307Z,1252
2018-01-22T11:10:12.789Z,1228
2018-01-22T11:10:38.303Z,1224
2018-01-22T11:11:03.768Z,1180
2018-01-22T11:11:29.230Z,1184
2018-01-22T11:11:54.688Z,1152
2018-01-22T11:12:20.160Z,1100
2018-01-22T11:12:45.653Z,1100
2018-01-22T11:14:09.619Z,1340
2018-01-22T11:14:35.102Z,1368
2018-01-22T11:15:00.592Z,1384
2018-01-22T11:15:26.069Z,1248
2018-01-22T11:15:51.526Z,1264
2018-01-22T11:16:17.041Z,1308
2018-01-22T11:16:42.554Z,1364
2018-01-22T11:17:08.019Z,1320
2018-01-22T11:17:33.504Z,1268
2018-01-22T11:17:58.953Z,1236
2018-01-22T11:18:24.437Z,1228
2018-01-22T11:18:49.901Z,1256
2018-01-22T11:19:15.371Z,1304
2018-01-22T11:19:40.857Z,1352
2018-01-22T11:20:06.368Z,1488
2018-01-22T11:20:31.837Z,1640
2018-01-22T11:20:57.282Z,1524
2018-01-22T11:21:22.780Z,1700
2018-01-22T11:21:48.283Z,1620
2018-01-22T11:22:13.773Z,1596
2018-01-22T11:22:39.238Z,1596
2018-01-22T11:23:04.724Z,1608
2018-01-22T11:23:30.216Z,1644
2018-01-22T11:23:55.687Z,1628
2018-01-22T11:24:21.142Z,1572
2018-01-22T11:24:46.636Z,1556
2018-01-22T11:25:12.120Z,1584
2018-01-22T11:25:37.568Z,1640
2018-01-22T11:26:03.103Z,1692
2018-01-22T11:26:28.587Z,1604
2018-01-22T11:26:54.052Z,1708
2018-01-22T11:27:19.526Z,1656
2018-01-22T11:27:45.012Z,1704
2018-01-22T11:28:10.522Z,1700
2018-01-22T11:28:36.028Z,1452
2018-01-22T11:29:01.469Z,1408
2018-01-22T11:29:26.937Z,1364
2018-01-22T11:29:52.470Z,1296
2018-01-22T11:30:17.963Z,1224
2018-01-22T11:32:21.060Z,1556
2018-01-22T11:32:46.534Z,1664
2018-01-22T11:33:12.059Z,1612
2018-01-22T11:34:15.671Z,1432
2018-01-22T11:34:41.171Z,1364
2018-01-22T11:35:06.666Z,1352
2018-01-22T11:35:32.134Z,1304
2018-01-22T11:35:57.607Z,1164
2018-01-22T11:36:23.138Z,1116
2018-01-22T11:36:48.685Z,1192
2018-01-22T11:37:14.169Z,1272
2018-01-22T11:37:39.684Z,1292
2018-01-22T11:38:05.199Z,1228
2018-01-22T11:38:30.704Z,1084
2018-01-22T11:39:49.649Z,1320
2018-01-22T11:40:15.121Z,1168
2018-01-22T11:40:40.636Z,1140
2018-01-22T11:41:06.129Z,1324
2018-01-22T11:41:31.655Z,1324
2018-01-22T11:41:57.101Z,1104
2018-01-22T11:42:22.590Z,1296
2018-01-22T11:42:48.108Z,1376
2018-01-22T11:43:56.803Z,1164
2018-01-22T11:44:22.291Z,1512
2018-01-22T11:44:47.757Z,1684
2018-01-22T11:46:06.740Z,1268
2018-01-22T11:47:30.775Z,1388
2018-01-22T11:47:56.224Z,1188
2018-01-22T11:48:21.806Z,1344
2018-01-22T11:48:47.333Z,1808
2018-01-22T11:49:50.926Z,1696
2018-01-22T11:50:16.416Z,1696
2018-01-22T11:50:41.928Z,2156
2018-01-22T11:51:07.362Z,2156
2018-01-22T11:51:32.909Z,2360
2018-01-22T11:51:58.386Z,2256
2018-01-22T11:52:23.877Z,2200
2018-01-22T11:52:49.352Z,2084
2018-01-22T11:53:14.866Z,1864
2018-01-22T11:53:40.344Z,1740
2018-01-22T11:54:05.840Z,2156
2018-01-22T11:54:31.305Z,2488